Time;durP1;ratioP1;P1;durP2;ratioP2;P2;SDS_P1;SDS_P2;PMS_P1;PMS_P2;Temp;Humidity;BMP_temperature;BMP_pressure;BME280_temperature;BME280_humidity;BME280_pressure;Samples;Min_cycle;Max_cycle;Signal;HPM_P1;HPM_P2
2024/02/21 00:01:37;;;;;;;1.73;1.03;;;;;;;5.73;100.00;95410.09;10460648;28;20840;-75
2024/02/21 00:06:37;;;;;;;0.00;0.00;;;;;;;5.86;100.00;95411.81;10459649;28;20278;-76
2024/02/21 00:11:38;;;;;;;0.00;0.00;;;;;;;5.88;100.00;95400.91;10460173;28;20028;-76
2024/02/21 00:16:38;;;;;;;2.67;2.43;;;;;;;5.87;100.00;95402.72;10442212;28;20151;-76
2024/02/21 00:21:38;;;;;;;1.92;1.85;;;;;;;5.82;100.00;95402.63;10459722;28;20298;-76
2024/02/21 00:26:39;;;;;;;0.43;0.00;;;;;;;5.61;100.00;95396.75;10459667;28;20536;-77
2024/02/21 00:31:39;;;;;;;2.47;2.27;;;;;;;5.57;100.00;95394.75;10442196;28;20289;-76
2024/02/21 00:36:39;;;;;;;2.22;2.08;;;;;;;5.58;100.00;95391.84;10459176;28;20278;-76
2024/02/21 00:41:40;;;;;;;2.40;0.00;;;;;;;5.64;100.00;95390.94;10459099;28;20070;-76
2024/02/21 00:46:40;;;;;;;0.00;0.00;;;;;;;5.69;100.00;95392.13;10459955;28;20032;-76
2024/02/21 00:51:41;;;;;;;0.85;0.85;;;;;;;5.70;100.00;95383.88;10440518;28;20049;-76
2024/02/21 00:56:41;;;;;;;0.00;0.00;;;;;;;5.68;100.00;95390.50;10459617;28;20525;-75
2024/02/21 01:01:42;;;;;;;0.35;0.30;;;;;;;5.64;100.00;95382.94;10459442;28;20059;-76
2024/02/21 01:06:44;;;;;;;0.00;0.00;;;;;;;5.55;100.00;95370.16;10441697;28;20056;-75
2024/02/21 01:11:44;;;;;;;0.00;0.00;;;;;;;5.51;100.00;95364.44;10458390;28;20032;-76
2024/02/21 01:16:44;;;;;;;8.30;8.00;;;;;;;5.63;100.00;95364.50;10458584;28;20872;-76
2024/02/21 01:21:45;;;;;;;0.00;0.00;;;;;;;5.56;100.00;95361.13;10458734;28;20295;-76
2024/02/21 01:26:46;;;;;;;0.20;0.00;;;;;;;5.54;100.00;95356.03;10458598;28;20032;-77
2024/02/21 01:31:47;;;;;;;9.60;8.90;;;;;;;5.50;100.00;95360.19;10459187;28;20772;-77
2024/02/21 01:36:47;;;;;;;2.65;2.45;;;;;;;5.46;100.00;95353.66;10458696;28;20446;-78
2024/02/21 01:41:48;;;;;;;0.17;0.00;;;;;;;5.49;100.00;95353.22;10458539;28;20032;-75
2024/02/21 01:46:48;;;;;;;0.38;0.00;;;;;;;5.39;100.00;95342.28;10458471;28;20621;-76
2024/02/21 01:51:49;;;;;;;0.55;0.00;;;;;;;5.41;100.00;95343.66;10462696;28;20040;-75
2024/02/21 01:56:50;;;;;;;2.92;2.83;;;;;;;5.51;100.00;95347.66;10466543;28;20430;-77
2024/02/21 02:01:52;;;;;;;2.17;1.17;;;;;;;5.55;100.00;95344.28;10466471;28;20119;-76
2024/02/21 02:06:55;;;;;;;0.00;0.00;;;;;;;5.64;100.00;95336.81;10465513;28;20033;-77
2024/02/21 02:11:55;;;;;;;0.00;0.00;;;;;;;5.69;100.00;95333.44;10465328;28;20028;-75
2024/02/21 02:16:55;;;;;;;0.30;0.30;;;;;;;5.74;100.00;95338.94;10449859;28;20379;-76
2024/02/21 02:22:06;;;;;;;3.42;3.10;;;;;;;5.81;100.00;95334.31;10449665;28;20024;-79
2024/02/21 02:27:06;;;;;;;0.30;0.00;;;;;;;5.88;100.00;95334.22;10444812;28;20079;-78
2024/02/21 02:32:07;;;;;;;0.43;0.00;;;;;;;5.68;100.00;95323.81;10442580;28;20032;-77
2024/02/21 02:37:07;;;;;;;0.00;0.00;;;;;;;5.80;100.00;95322.84;10445623;28;20699;-77
2024/02/21 02:42:09;;;;;;;0.20;0.00;;;;;;;5.67;100.00;95325.69;10423796;28;20287;-78
2024/02/21 02:47:09;;;;;;;1.88;1.77;;;;;;;5.63;100.00;95319.19;10443946;28;20037;-77
2024/02/21 02:52:10;;;;;;;0.00;0.00;;;;;;;5.73;100.00;95322.09;10439450;28;20419;-78
2024/02/21 02:57:10;;;;;;;0.00;0.00;;;;;;;5.82;100.00;95323.41;10442424;28;20037;-77
2024/02/21 03:02:10;;;;;;;1.80;1.75;;;;;;;5.84;100.00;95327.72;10428147;28;20298;-77
2024/02/21 03:07:11;;;;;;;0.20;0.00;;;;;;;5.89;100.00;95328.66;10406091;28;20119;-77
2024/02/21 03:12:12;;;;;;;0.00;0.00;;;;;;;5.89;100.00;95330.47;10423666;28;20039;-76
2024/02/21 03:17:12;;;;;;;1.55;0.00;;;;;;;5.92;100.00;95338.84;10423791;28;20033;-78
2024/02/21 03:22:12;;;;;;;0.00;0.00;;;;;;;5.93;100.00;95345.81;10423419;28;20040;-78
2024/02/21 03:27:13;;;;;;;0.00;0.00;;;;;;;5.90;100.00;95338.28;10422976;28;20727;-78
2024/02/21 03:32:13;;;;;;;0.90;0.10;;;;;;;6.00;100.00;95345.75;10433663;28;20333;-77
2024/02/21 03:37:14;;;;;;;0.00;0.00;;;;;;;5.85;100.00;95347.97;10463838;28;20055;-77
2024/02/21 03:42:14;;;;;;;0.00;0.00;;;;;;;5.88;100.00;95355.56;10463117;28;20337;-78
2024/02/21 03:47:14;;;;;;;0.00;0.00;;;;;;;5.90;100.00;95364.97;10462512;28;20028;-77
2024/02/21 03:52:15;;;;;;;0.00;0.00;;;;;;;6.05;100.00;95355.72;10463245;28;20299;-78
2024/02/21 03:57:15;;;;;;;0.00;0.00;;;;;;;5.95;100.00;95358.94;10460693;28;20340;-77
2024/02/21 04:02:17;;;;;;;0.00;0.00;;;;;;;5.99;100.00;95358.25;10460950;28;20291;-77
2024/02/21 04:07:17;;;;;;;0.00;0.00;;;;;;;6.02;100.00;95356.19;10459520;28;20028;-78
2024/02/21 04:12:18;;;;;;;0.00;0.00;;;;;;;5.90;100.00;95358.78;10461090;28;20016;-77
2024/02/21 04:17:18;;;;;;;0.00;0.00;;;;;;;5.87;100.00;95357.38;10462444;28;20447;-79
2024/02/21 04:22:18;;;;;;;0.00;0.00;;;;;;;5.73;100.00;95348.75;10461941;28;20501;-76
2024/02/21 04:27:19;;;;;;;0.00;0.00;;;;;;;5.79;100.00;95347.03;10459181;28;20038;-78
2024/02/21 04:32:19;;;;;;;0.15;0.15;;;;;;;5.70;100.00;95345.75;10457194;28;20029;-77
2024/02/21 04:37:20;;;;;;;0.00;0.00;;;;;;;5.51;100.00;95342.31;10460856;28;20036;-78
2024/02/21 04:42:20;;;;;;;0.00;0.00;;;;;;;5.38;100.00;95344.13;10459573;28;20430;-77
2024/02/21 04:47:23;;;;;;;1.45;1.45;;;;;;;5.38;100.00;95345.97;10437659;28;20059;-77
2024/02/21 04:52:23;;;;;;;0.00;0.00;;;;;;;5.30;100.00;95350.59;10399258;28;20045;-74
2024/02/21 04:57:25;;;;;;;1.20;1.10;;;;;;;5.25;100.00;95350.44;10422015;28;20033;-77
2024/02/21 05:02:26;;;;;;;0.32;0.32;;;;;;;5.14;100.00;95354.66;10432404;28;20287;-75
2024/02/21 05:07:26;;;;;;;0.20;0.00;;;;;;;5.12;100.00;95350.59;10431429;28;20093;-77
2024/02/21 05:12:27;;;;;;;2.13;2.08;;;;;;;5.09;100.00;95359.03;10449833;28;20086;-77
2024/02/21 05:17:27;;;;;;;0.32;0.00;;;;;;;5.09;100.00;95367.03;10448299;28;20476;-77
2024/02/21 05:22:27;;;;;;;1.03;0.00;;;;;;;5.10;100.00;95366.00;10445094;28;20031;-77
2024/02/21 05:27:28;;;;;;;0.00;0.00;;;;;;;5.00;100.00;95373.69;10453208;28;20295;-77
2024/02/21 05:32:28;;;;;;;0.00;0.00;;;;;;;5.00;100.00;95371.03;10452956;28;20267;-76
2024/02/21 05:37:28;;;;;;;0.00;0.00;;;;;;;5.11;100.00;95370.28;10453465;28;20039;-77
2024/02/21 05:42:29;;;;;;;0.00;0.00;;;;;;;5.27;100.00;95372.34;10457432;28;20056;-78
2024/02/21 05:47:29;;;;;;;0.00;0.00;;;;;;;5.37;100.00;95377.16;10463449;28;20024;-77
2024/02/21 05:52:29;;;;;;;0.73;0.73;;;;;;;5.61;100.00;95386.06;10464528;28;20053;-77
2024/02/21 05:57:30;;;;;;;1.10;1.10;;;;;;;5.72;100.00;95389.00;10449922;28;20618;-77
2024/02/21 06:02:30;;;;;;;0.10;0.00;;;;;;;5.89;100.00;95379.31;10446247;28;21059;-79
2024/02/21 06:07:31;;;;;;;0.00;0.00;;;;;;;5.90;100.00;95388.97;10463193;28;20021;-78
2024/02/21 06:12:31;;;;;;;0.15;0.00;;;;;;;6.05;100.00;95398.44;10464457;28;20025;-77
2024/02/21 06:17:31;;;;;;;5.23;4.90;;;;;;;6.09;100.00;95405.75;10462219;28;20497;-77
2024/02/21 06:22:32;;;;;;;0.25;0.25;;;;;;;6.13;100.00;95403.44;10462286;28;20333;-77
2024/02/21 06:27:32;;;;;;;0.37;0.00;;;;;;;6.34;100.00;95410.09;10463384;28;20111;-76
2024/02/21 06:32:32;;;;;;;0.80;0.77;;;;;;;6.74;100.00;95416.63;10463195;28;20469;-79
2024/02/21 06:37:33;;;;;;;0.90;0.00;;;;;;;7.17;100.00;95416.28;10462272;28;20024;-79
2024/02/21 06:42:33;;;;;;;0.00;0.00;;;;;;;7.57;100.00;95411.19;10458810;28;20565;-77
2024/02/21 06:47:34;;;;;;;0.00;0.00;;;;;;;7.46;100.00;95421.66;10456610;28;20281;-78
2024/02/21 06:52:34;;;;;;;0.00;0.00;;;;;;;7.47;100.00;95430.53;10462027;28;20083;-78
2024/02/21 06:57:35;;;;;;;0.00;0.00;;;;;;;7.67;100.00;95430.94;10461835;28;20020;-79
2024/02/21 07:02:35;;;;;;;0.00;0.00;;;;;;;7.72;100.00;95430.22;10460879;28;20024;-76
2024/02/21 07:07:35;;;;;;;0.00;0.00;;;;;;;7.86;100.00;95430.75;10461227;28;20025;-77
2024/02/21 07:12:38;;;;;;;0.00;0.00;;;;;;;7.81;100.00;95431.44;10461433;28;20052;-77
2024/02/21 07:17:38;;;;;;;0.00;0.00;;;;;;;7.93;100.00;95428.75;10460765;28;20035;-79
2024/02/21 07:22:39;;;;;;;0.00;0.00;;;;;;;8.22;100.00;95431.41;10460818;28;20819;-77
2024/02/21 07:27:40;;;;;;;0.28;0.10;;;;;;;8.35;100.00;95428.41;10460669;28;20042;-78
2024/02/21 07:32:41;;;;;;;0.00;0.00;;;;;;;8.25;100.00;95432.78;10460851;28;20025;-79
2024/02/21 07:37:41;;;;;;;0.00;0.00;;;;;;;8.28;100.00;95433.13;10460507;28;20067;-78
2024/02/21 07:42:43;;;;;;;0.00;0.00;;;;;;;8.29;100.00;95434.75;10460020;28;20056;-78
2024/02/21 07:47:43;;;;;;;0.00;0.00;;;;;;;8.55;100.00;95437.88;10459250;28;20113;-79
2024/02/21 07:52:44;;;;;;;0.00;0.00;;;;;;;8.66;100.00;95428.94;10460342;28;20048;-78
2024/02/21 07:57:44;;;;;;;2.80;2.55;;;;;;;8.65;100.00;95427.34;10458803;28;20044;-77
2024/02/21 08:02:46;;;;;;;0.80;0.80;;;;;;;8.69;100.00;95433.03;10459350;28;20040;-77
2024/02/21 08:07:48;;;;;;;2.63;2.45;;;;;;;8.77;100.00;95431.81;10459281;28;20021;-78
2024/02/21 08:12:48;;;;;;;1.85;1.55;;;;;;;8.72;100.00;95421.81;10459939;28;20459;-78
2024/02/21 08:17:49;;;;;;;1.53;1.43;;;;;;;8.77;100.00;95424.56;10459059;28;20025;-78
2024/02/21 08:22:49;;;;;;;1.98;1.85;;;;;;;8.87;100.00;95419.38;10459589;28;20282;-77
2024/02/21 08:27:51;;;;;;;2.13;2.03;;;;;;;9.27;100.00;95420.19;10458644;28;20037;-77
2024/02/21 08:32:53;;;;;;;4.32;4.07;;;;;;;9.47;100.00;95414.28;10459669;28;20657;-77
2024/02/21 08:37:54;;;;;;;0.68;0.68;;;;;;;9.99;100.00;95413.03;10458407;28;20032;-77
2024/02/21 08:42:54;;;;;;;2.87;2.33;;;;;;;10.36;100.00;95416.91;10452239;28;20029;-77
2024/02/21 08:47:54;;;;;;;1.08;0.00;;;;;;;10.62;100.00;95412.56;10458991;28;20270;-77
2024/02/21 08:52:55;;;;;;;1.17;1.13;;;;;;;10.92;100.00;95408.47;10458058;28;20037;-78
2024/02/21 08:57:55;;;;;;;0.52;0.00;;;;;;;11.02;95.75;95413.91;10458377;28;20788;-78
2024/02/21 09:02:55;;;;;;;0.00;0.00;;;;;;;10.94;97.71;95409.84;10466384;28;20103;-76
2024/02/21 09:07:56;;;;;;;0.20;0.00;;;;;;;11.15;94.08;95412.66;10466799;28;20267;-79
2024/02/21 09:12:56;;;;;;;0.00;0.00;;;;;;;11.62;89.36;95408.31;10466224;28;20051;-77
2024/02/21 09:17:56;;;;;;;0.20;0.20;;;;;;;11.70;86.02;95417.78;10450401;28;20699;-77
2024/02/21 09:22:57;;;;;;;0.00;0.00;;;;;;;11.70;86.52;95407.00;10466730;28;20637;-77
2024/02/21 09:28:00;;;;;;;0.20;0.05;;;;;;;11.67;86.66;95407.53;10447781;28;20945;-77
2024/02/21 09:33:02;;;;;;;1.35;0.70;;;;;;;11.87;87.29;95402.22;10448280;28;20055;-77
2024/02/21 09:38:02;;;;;;;0.00;0.00;;;;;;;12.07;86.12;95397.97;10469530;28;20506;-78
2024/02/21 09:43:07;;;;;;;0.00;0.00;;;;;;;11.79;90.16;95416.19;10450000;28;20024;-76
2024/02/21 09:48:19;;;;;;;0.00;0.00;;;;;;;11.91;90.30;95403.31;10465170;28;20028;-78
2024/02/21 09:53:20;;;;;;;0.00;0.00;;;;;;;12.22;90.22;95398.00;10464965;28;20464;-77
2024/02/21 09:58:23;;;;;;;0.00;0.00;;;;;;;12.59;82.30;95396.19;10446641;28;20082;-79
2024/02/21 10:03:24;;;;;;;0.00;0.00;;;;;;;12.69;80.03;95395.38;10463981;28;20032;-78
2024/02/21 10:08:24;;;;;;;0.00;0.00;;;;;;;12.74;77.91;95400.75;10465676;28;20494;-79
2024/02/21 10:13:29;;;;;;;0.00;0.00;;;;;;;13.08;70.61;95390.19;10464304;28;20853;-77
2024/02/21 10:18:29;;;;;;;0.00;0.00;;;;;;;13.43;65.33;95383.13;10445343;28;21051;-78
2024/02/21 10:23:44;;;;;;;0.00;0.00;;;;;;;13.18;65.08;95377.78;10463925;28;20070;-78
2024/02/21 10:28:46;;;;;;;0.00;0.00;;;;;;;13.12;65.27;95368.88;10463602;28;20173;-77
2024/02/21 10:34:02;;;;;;;0.35;0.00;;;;;;;12.12;72.21;95361.09;10463001;28;20024;-77
2024/02/21 10:39:03;;;;;;;0.00;0.00;;;;;;;12.50;76.13;95346.56;10451658;28;20016;-79
2024/02/21 10:44:05;;;;;;;0.00;0.00;;;;;;;13.26;71.38;95340.22;10454177;28;20029;-78
2024/02/21 10:49:13;;;;;;;0.00;0.00;;;;;;;13.90;61.12;95331.59;10462754;28;20277;-77
2024/02/21 10:54:21;;;;;;;0.00;0.00;;;;;;;14.23;57.17;95318.41;10463293;28;20072;-79
2024/02/21 10:59:23;;;;;;;0.00;0.00;;;;;;;14.71;54.87;95313.19;10463843;28;20136;-78
2024/02/21 11:04:25;;;;;;;0.00;0.00;;;;;;;15.10;52.75;95306.84;10461136;28;20468;-77
2024/02/21 11:09:32;;;;;;;0.00;0.00;;;;;;;15.19;47.83;95296.97;10458842;28;20379;-77
2024/02/21 11:14:36;;;;;;;0.32;0.00;;;;;;;14.96;49.47;95300.47;10461240;28;20510;-76
2024/02/21 11:19:37;;;;;;;0.00;0.00;;;;;;;17.45;44.66;95269.31;10460701;28;20060;-77
2024/02/21 11:24:38;;;;;;;0.00;0.00;;;;;;;20.18;36.96;95260.38;10460967;28;20861;-77
2024/02/21 11:30:04;;;;;;;0.00;0.00;;;;;;;19.16;38.15;95266.91;10461422;28;20832;-77
2024/02/21 11:35:05;;;;;;;0.00;0.00;;;;;;;16.79;42.22;95274.91;10460591;28;20032;-77
2024/02/21 11:40:09;;;;;;;1999.90;999.90;;;;;;;17.48;39.21;95258.63;10460151;28;20424;-78
2024/02/21 11:45:10;;;;;;;1999.90;999.90;;;;;;;16.91;40.51;95265.19;10456350;28;20042;-77
2024/02/21 11:50:10;;;;;;;1999.90;999.90;;;;;;;15.70;42.70;95263.03;10459442;28;20740;-77
2024/02/21 11:55:11;;;;;;;1999.90;999.90;;;;;;;14.57;44.54;95261.63;10460871;28;20294;-79
2024/02/21 12:00:21;;;;;;;1999.90;999.90;;;;;;;13.49;48.59;95265.94;10460713;28;20028;-76
2024/02/21 12:05:22;;;;;;;1999.90;999.90;;;;;;;13.01;49.96;95259.38;10459493;28;20036;-79
2024/02/21 12:10:22;;;;;;;1999.90;999.90;;;;;;;12.66;50.63;95256.50;10459142;28;20069;-78
2024/02/21 12:15:23;;;;;;;1999.90;999.90;;;;;;;12.51;51.62;95253.81;10460204;28;20044;-79
2024/02/21 12:20:23;;;;;;;1999.90;999.90;;;;;;;11.77;54.76;95254.06;10459256;28;20286;-78
2024/02/21 12:25:25;;;;;;;1999.90;999.90;;;;;;;11.44;59.92;95246.22;10441617;28;20418;-78
2024/02/21 12:30:26;;;;;;;1999.90;999.90;;;;;;;11.09;61.92;95253.13;10441426;28;20028;-77
2024/02/21 12:35:26;;;;;;;1999.90;999.90;;;;;;;11.29;64.55;95243.50;10459271;28;20075;-78
2024/02/21 12:40:32;;;;;;;1999.90;999.90;;;;;;;11.24;64.69;95241.56;10459352;28;20039;-78
2024/02/21 12:45:34;;;;;;;1999.90;999.90;;;;;;;10.98;64.86;95237.19;10454530;28;20024;-77
2024/02/21 12:50:34;;;;;;;1999.90;999.90;;;;;;;11.08;65.63;95248.00;10441308;28;20548;-77
2024/02/21 12:55:35;;;;;;;1999.90;999.90;;;;;;;10.90;68.68;95238.50;10440887;28;20056;-79
2024/02/21 13:00:35;;;;;;;1999.90;999.90;;;;;;;10.34;69.41;95226.41;10458536;28;20485;-77
2024/02/21 13:05:36;;;;;;;1999.90;999.90;;;;;;;9.85;74.27;95231.91;10458834;28;20883;-77
2024/02/21 13:10:37;;;;;;;1999.90;999.90;;;;;;;9.37;75.88;95223.69;10457858;28;20108;-78
2024/02/21 13:15:42;;;;;;;1999.90;999.90;;;;;;;9.45;79.23;95217.06;10458584;28;20044;-77
2024/02/21 13:20:43;;;;;;;1999.90;999.90;;;;;;;10.00;81.91;95220.47;10440014;28;20060;-78
2024/02/21 13:25:46;;;;;;;1999.90;999.90;;;;;;;10.18;88.18;95220.06;10457800;28;20131;-77
2024/02/21 13:30:47;;;;;;;1999.90;999.90;;;;;;;10.45;90.92;95216.50;10440664;28;20107;-78
2024/02/21 13:35:47;;;;;;;1999.90;999.90;;;;;;;10.42;90.21;95211.66;10439521;28;20032;-77
2024/02/21 13:40:47;;;;;;;1999.90;999.90;;;;;;;10.60;90.25;95205.03;10457494;28;20036;-77
2024/02/21 13:46:00;;;;;;;1999.90;999.90;;;;;;;10.42;88.64;95212.47;10449360;28;20032;-78
2024/02/21 13:51:02;;;;;;;1999.90;999.90;;;;;;;10.39;90.71;95209.50;10447526;28;20127;-77
2024/02/21 13:56:02;;;;;;;1999.90;999.90;;;;;;;10.34;91.36;95204.03;10464695;28;20036;-77
2024/02/21 14:01:02;;;;;;;1999.90;999.90;;;;;;;10.26;88.51;95208.03;10464884;28;20096;-78
2024/02/21 14:06:03;;;;;;;1999.90;999.90;;;;;;;10.19;89.90;95207.47;10465246;28;20048;-78
2024/02/21 14:11:04;;;;;;;1999.90;999.90;;;;;;;10.08;91.82;95202.00;10465370;28;20672;-76
2024/02/21 14:16:11;;;;;;;1999.90;999.90;;;;;;;10.07;95.86;95202.25;10464154;28;20059;-77
2024/02/21 14:21:11;;;;;;;1999.90;999.90;;;;;;;9.92;98.50;95198.41;10464839;28;20036;-77
2024/02/21 14:26:12;;;;;;;1999.90;999.90;;;;;;;9.97;98.77;95200.31;10463918;28;20099;-78
2024/02/21 14:31:12;;;;;;;1999.90;999.90;;;;;;;9.97;96.94;95197.63;10464519;28;20437;-79
2024/02/21 14:36:12;;;;;;;1999.90;999.90;;;;;;;9.99;94.71;95194.69;10463915;28;20029;-78
2024/02/21 14:41:13;;;;;;;1999.90;999.90;;;;;;;9.86;90.50;95188.69;10463955;28;20035;-78
2024/02/21 14:46:13;;;;;;;1999.90;999.90;;;;;;;9.72;90.62;95187.50;10454106;28;20036;-79
2024/02/21 14:51:14;;;;;;;1999.90;999.90;;;;;;;9.78;89.46;95193.72;10462911;28;20045;-78
2024/02/21 14:56:17;;;;;;;1999.90;999.90;;;;;;;9.75;90.61;95187.81;10462697;28;20843;-78
2024/02/21 15:01:17;;;;;;;1999.90;999.90;;;;;;;9.64;90.05;95190.66;10461710;28;20534;-78
2024/02/21 15:06:18;;;;;;;1999.90;999.90;;;;;;;9.30;94.68;95197.06;10462308;28;20079;-78
2024/02/21 15:11:18;;;;;;;1999.90;999.90;;;;;;;9.46;96.54;95202.56;10462581;28;20043;-78
2024/02/21 15:16:19;;;;;;;1999.90;999.90;;;;;;;9.18;100.00;95197.22;10461961;28;20710;-78
2024/02/21 15:21:19;;;;;;;1999.90;999.90;;;;;;;8.92;100.00;95211.41;10444058;28;20033;-77
2024/02/21 15:26:20;;;;;;;1999.90;999.90;;;;;;;8.90;100.00;95211.66;10461706;28;20036;-78
2024/02/21 15:31:22;;;;;;;1999.90;999.90;;;;;;;8.95;100.00;95206.38;10462088;28;20800;-77
2024/02/21 15:36:23;;;;;;;1999.90;999.90;;;;;;;9.03;100.00;95210.47;10460806;28;20024;-78
2024/02/21 15:41:23;;;;;;;1999.90;999.90;;;;;;;9.05;100.00;95211.81;10461084;28;20090;-78
2024/02/21 15:46:23;;;;;;;1999.90;999.90;;;;;;;9.03;100.00;95213.16;10449135;28;20039;-77
2024/02/21 15:51:24;;;;;;;1999.90;999.90;;;;;;;8.87;100.00;95206.81;10460747;28;20040;-76
2024/02/21 15:56:24;;;;;;;1999.90;999.90;;;;;;;8.92;100.00;95219.44;10446683;28;20642;-77
2024/02/21 16:01:24;;;;;;;1999.90;999.90;;;;;;;8.89;100.00;95215.41;10457828;28;20291;-78
2024/02/21 16:06:25;;;;;;;1999.90;999.90;;;;;;;8.66;100.00;95222.63;10459590;28;20384;-77
2024/02/21 16:11:25;;;;;;;1999.90;999.90;;;;;;;8.57;100.00;95232.19;10460148;28;20776;-78
2024/02/21 16:16:26;;;;;;;1999.90;999.90;;;;;;;8.49;100.00;95229.91;10441711;28;20029;-77
2024/02/21 16:21:26;;;;;;;1999.90;999.90;;;;;;;8.44;100.00;95227.13;10459635;28;20117;-78
2024/02/21 16:26:27;;;;;;;1999.90;999.90;;;;;;;8.52;100.00;95232.09;10440628;28;20514;-78
2024/02/21 16:31:27;;;;;;;1999.90;999.90;;;;;;;8.47;100.00;95240.88;10459617;28;20046;-76
2024/02/21 16:36:27;;;;;;;1999.90;999.90;;;;;;;8.29;100.00;95249.16;10458254;28;20471;-78
2024/02/21 16:41:28;;;;;;;1999.90;999.90;;;;;;;8.31;100.00;95258.56;10458944;28;20289;-78
2024/02/21 16:46:28;;;;;;;1999.90;999.90;;;;;;;8.32;100.00;95265.53;10456373;28;20359;-78
2024/02/21 16:51:28;;;;;;;1999.90;999.90;;;;;;;8.29;100.00;95262.53;10457721;28;20044;-78
2024/02/21 16:56:29;;;;;;;1999.90;999.90;;;;;;;8.16;100.00;95259.16;10458932;28;20285;-78
2024/02/21 17:01:38;;;;;;;1999.90;999.90;;;;;;;8.15;100.00;95268.25;10459198;28;20797;-78
2024/02/21 17:06:39;;;;;;;1999.90;999.90;;;;;;;8.09;100.00;95273.75;10458445;28;20746;-77
2024/02/21 17:11:40;;;;;;;1999.90;999.90;;;;;;;7.95;100.00;95278.63;10458404;28;20351;-77
2024/02/21 17:16:40;;;;;;;1999.90;999.90;;;;;;;7.86;100.00;95280.91;10457438;28;20041;-77
2024/02/21 17:21:42;;;;;;;1999.90;999.90;;;;;;;7.91;100.00;95278.31;10454563;28;20032;-78
2024/02/21 17:26:42;;;;;;;1999.90;999.90;;;;;;;7.83;100.00;95289.41;10447430;28;20036;-80
2024/02/21 17:31:43;;;;;;;1999.90;999.90;;;;;;;7.75;100.00;95305.84;10432377;28;20037;-78
2024/02/21 17:36:43;;;;;;;1999.90;999.90;;;;;;;7.71;100.00;95297.50;10429613;28;20036;-79
2024/02/21 17:41:44;;;;;;;1999.90;999.90;;;;;;;7.77;100.00;95303.75;10449566;28;20064;-76
2024/02/21 17:46:45;;;;;;;1999.90;999.90;;;;;;;7.78;100.00;95308.03;10446305;28;20032;-77
2024/02/21 17:51:45;;;;;;;1999.90;999.90;;;;;;;7.68;100.00;95306.81;10447565;28;20041;-79
2024/02/21 17:56:47;;;;;;;1999.90;999.90;;;;;;;7.56;100.00;95314.06;10444589;28;20465;-77
2024/02/21 18:01:47;;;;;;;1999.90;999.90;;;;;;;7.33;100.00;95321.13;10451708;28;20397;-77
2024/02/21 18:06:48;;;;;;;1999.90;999.90;;;;;;;7.01;100.00;95326.91;10452479;28;20756;-77
2024/02/21 18:11:48;;;;;;;1999.90;999.90;;;;;;;7.12;100.00;95329.81;10437731;28;20115;-75
2024/02/21 18:16:48;;;;;;;1999.90;999.90;;;;;;;6.87;100.00;95332.78;10457108;28;20043;-80
2024/02/21 18:21:50;;;;;;;1999.90;999.90;;;;;;;6.91;100.00;95329.41;10457426;28;20029;-78
2024/02/21 18:26:51;;;;;;;1999.90;999.90;;;;;;;6.86;100.00;95328.47;10445745;28;20032;-77
2024/02/21 18:31:51;;;;;;;1999.90;999.90;;;;;;;6.86;100.00;95345.31;10431626;28;20029;-77
2024/02/21 18:36:51;;;;;;;1999.90;999.90;;;;;;;6.67;100.00;95353.47;10445060;28;20262;-77
2024/02/21 18:41:52;;;;;;;1999.90;999.90;;;;;;;6.79;100.00;95349.97;10447089;28;20306;-78
2024/02/21 18:46:53;;;;;;;1999.90;999.90;;;;;;;6.66;100.00;95348.34;10455541;28;20028;-79
2024/02/21 18:51:53;;;;;;;1999.90;999.90;;;;;;;6.70;100.00;95354.03;10452344;28;20041;-80
2024/02/21 18:56:57;;;;;;;1999.90;999.90;;;;;;;6.67;100.00;95350.78;10458052;28;20036;-84
2024/02/21 19:01:57;;;;;;;1999.90;999.90;;;;;;;6.48;100.00;95358.09;10455029;28;20279;-77
2024/02/21 19:06:57;;;;;;;1999.90;999.90;;;;;;;6.60;100.00;95352.78;10461995;28;20032;-85
2024/02/21 19:11:59;;;;;;;1999.90;999.90;;;;;;;6.72;100.00;95351.94;10453592;28;20298;-83
2024/02/21 19:17:00;;;;;;;1999.90;999.90;;;;;;;6.25;100.00;95345.56;10451388;28;20309;-87
2024/02/21 19:22:01;;;;;;;1999.90;999.90;;;;;;;5.66;100.00;95342.72;10452222;28;20438;-79
2024/02/21 19:27:02;;;;;;;1999.90;999.90;;;;;;;5.67;100.00;95351.56;10471604;28;20085;-78
2024/02/21 19:32:04;;;;;;;1999.90;999.90;;;;;;;5.34;100.00;95356.25;10441215;28;20082;-81
2024/02/21 19:37:06;;;;;;;1999.90;999.90;;;;;;;5.23;100.00;95352.53;10463636;28;20032;-78
2024/02/21 19:42:06;;;;;;;1999.90;999.90;;;;;;;5.16;100.00;95361.63;10459210;28;20032;-77
2024/02/21 19:47:07;;;;;;;1999.90;999.90;;;;;;;5.04;100.00;95364.22;10449127;28;20081;-80
2024/02/21 19:52:07;;;;;;;1999.90;999.90;;;;;;;4.73;100.00;95364.13;10465159;28;20366;-82
2024/02/21 19:57:08;;;;;;;1999.90;999.90;;;;;;;4.61;100.00;95357.91;10465091;28;20042;-80
2024/02/21 20:02:08;;;;;;;1999.90;999.90;;;;;;;4.44;100.00;95365.66;10467326;28;20491;-81
2024/02/21 20:07:09;;;;;;;1999.90;999.90;;;;;;;4.35;100.00;95366.94;10467517;28;20541;-81
2024/02/21 20:12:09;;;;;;;1999.90;999.90;;;;;;;4.30;100.00;95369.44;10467696;28;20525;-81
2024/02/21 20:17:10;;;;;;;1999.90;999.90;;;;;;;4.14;100.00;95365.50;10467857;28;20032;-81
2024/02/21 20:22:11;;;;;;;1999.90;999.90;;;;;;;4.01;100.00;95359.25;10469165;28;20033;-81
2024/02/21 20:27:12;;;;;;;1999.90;999.90;;;;;;;3.88;100.00;95359.31;10467029;28;20471;-80
2024/02/21 20:32:13;;;;;;;1999.90;999.90;;;;;;;3.85;100.00;95365.91;10477399;28;20109;-80
2024/02/21 20:37:14;;;;;;;1999.90;999.90;;;;;;;3.82;100.00;95354.88;10451247;28;20101;-80
2024/02/21 20:42:17;;;;;;;1999.90;999.90;;;;;;;3.87;100.00;95344.41;10447865;28;20036;-80
2024/02/21 20:47:19;;;;;;;1999.90;999.90;;;;;;;3.96;100.00;95335.13;10464775;28;20028;-80
2024/02/21 20:52:20;;;;;;;1999.90;999.90;;;;;;;4.03;100.00;95322.63;10458742;28;20052;-81
2024/02/21 20:57:21;;;;;;;1999.90;999.90;;;;;;;3.98;100.00;95317.13;10452674;28;20028;-74
2024/02/21 21:02:21;;;;;;;1999.90;999.90;;;;;;;4.16;100.00;95310.22;10464196;28;20116;-77
2024/02/21 21:07:22;;;;;;;1999.90;999.90;;;;;;;4.40;100.00;95305.91;10467440;28;20052;-77
2024/02/21 21:12:22;;;;;;;1999.90;999.90;;;;;;;4.58;100.00;95307.78;10465675;28;20024;-76
2024/02/21 21:17:23;;;;;;;1999.90;999.90;;;;;;;4.71;100.00;95307.63;10465401;28;20281;-76
2024/02/21 21:22:23;;;;;;;1999.90;999.90;;;;;;;4.84;100.00;95308.50;10466265;28;20399;-78
2024/02/21 21:27:26;;;;;;;1999.90;999.90;;;;;;;4.93;100.00;95309.84;10469330;28;20266;-76
2024/02/21 21:32:27;;;;;;;1999.90;999.90;;;;;;;4.97;100.00;95306.50;10465582;28;20044;-77
2024/02/21 21:37:28;;;;;;;1999.90;999.90;;;;;;;4.92;100.00;95309.00;10465550;28;20523;-78
2024/02/21 21:42:28;;;;;;;1999.90;999.90;;;;;;;4.89;100.00;95314.78;10453104;28;20127;-82
2024/02/21 21:47:28;;;;;;;1999.90;999.90;;;;;;;4.95;100.00;95313.91;10472918;28;20032;-78
2024/02/21 21:52:29;;;;;;;1999.90;999.90;;;;;;;4.99;100.00;95313.47;10472447;28;20670;-79
2024/02/21 21:57:29;;;;;;;1999.90;999.90;;;;;;;4.96;100.00;95320.03;10470808;28;20773;-77
2024/02/21 22:02:29;;;;;;;1999.90;999.90;;;;;;;4.83;100.00;95320.19;10469522;28;20370;-79
2024/02/21 22:07:30;;;;;;;1999.90;999.90;;;;;;;4.90;100.00;95313.75;10469833;28;20025;-81
2024/02/21 22:12:30;;;;;;;1999.90;999.90;;;;;;;4.79;100.00;95311.84;10466049;28;20023;-80
2024/02/21 22:17:32;;;;;;;1999.90;999.90;;;;;;;4.60;100.00;95317.19;10452121;28;20024;-83
2024/02/21 22:22:32;;;;;;;1999.90;999.90;;;;;;;4.53;100.00;95315.59;10473699;28;20025;-84
2024/02/21 22:27:33;;;;;;;1999.90;999.90;;;;;;;4.54;100.00;95309.25;10455630;28;20020;-84
2024/02/21 22:32:33;;;;;;;1999.90;999.90;;;;;;;4.42;100.00;95314.47;10448365;28;20111;-73
2024/02/21 22:37:34;;;;;;;1999.90;999.90;;;;;;;4.26;100.00;95302.56;10463799;28;20032;-76
2024/02/21 22:42:35;;;;;;;1999.90;999.90;;;;;;;4.21;100.00;95310.38;10459119;28;20429;-78